Time;durP1;ratioP1;P1;durP2;ratioP2;P2;SDS_P1;SDS_P2;PMS_P1;PMS_P2;Temp;Humidity;BMP_temperature;BMP_pressure;BME280_temperature;BME280_humidity;BME280_pressure;Samples;Min_cycle;Max_cycle;Signal;HPM_P1;HPM_P2
2023/05/12 13:33:51;;;;;;;4.95;2.17;;;;;;;22.83;47.66;99633.75;1154452;36;20039;-45
2023/05/12 13:34:55;;;;;;;12.05;2.38;;;;;;;22.91;47.91;99641.56;1211747;36;20039;-45
2023/05/12 13:35:57;;;;;;;5.18;2.17;;;;;;;22.92;47.68;99636.97;1154877;36;20146;-45
2023/05/12 13:37:02;;;;;;;4.93;2.22;;;;;;;23.19;47.36;99629.16;1154576;36;20048;-44
2023/05/12 13:38:06;;;;;;;5.97;2.38;;;;;;;23.06;47.32;99638.38;1155580;31;20541;-44
2023/05/12 13:39:09;;;;;;;7.32;2.63;;;;;;;23.01;47.37;99635.53;1154689;36;25496;-43
2023/05/12 13:40:14;;;;;;;4.97;2.40;;;;;;;22.94;47.35;99637.56;1154887;36;25168;-44
2023/05/12 13:41:15;;;;;;;5.25;2.10;;;;;;;22.99;47.57;99638.50;1154787;36;25797;-43
2023/05/12 13:42:20;;;;;;;7.05;2.35;;;;;;;22.94;47.26;99635.66;1154951;36;28030;-43
2023/05/12 13:43:24;;;;;;;4.55;2.03;;;;;;;23.04;47.49;99645.97;1154895;36;25401;-43
2023/05/12 13:44:26;;;;;;;11.80;2.50;;;;;;;23.10;46.91;99636.84;1168413;36;55786;-42
2023/05/12 13:45:59;;;;;;;5.65;2.67;;;;;;;23.08;47.26;99641.69;1118957;36;20057;-43
2023/05/12 13:47:00;;;;;;;5.70;2.75;;;;;;;23.09;47.03;99635.19;1155044;36;20060;-43
2023/05/12 13:48:03;;;;;;;6.10;2.17;;;;;;;23.08;47.34;99638.16;1154743;36;20034;-43
2023/05/12 13:49:04;;;;;;;4.47;2.20;;;;;;;23.06;47.39;99643.81;1155162;36;20034;-44
2023/05/12 13:50:09;;;;;;;17.17;2.90;;;;;;;23.18;47.03;99638.38;1155066;36;20451;-43
2023/05/12 13:51:10;;;;;;;6.20;2.20;;;;;;;23.13;47.04;99639.09;1155284;36;20042;-42
2023/05/12 13:52:13;;;;;;;13.93;2.83;;;;;;;23.08;47.24;99647.13;1155246;36;20047;-44
2023/05/12 13:53:14;;;;;;;5.38;2.15;;;;;;;23.04;47.01;99643.25;1155480;36;20038;-43
2023/05/12 13:54:18;;;;;;;6.50;2.80;;;;;;;22.95;47.35;99640.03;1184975;36;20060;-42
2023/05/12 13:55:26;;;;;;;6.55;2.20;;;;;;;22.90;47.75;99643.47;1184804;36;20067;-42
2023/05/12 13:56:29;;;;;;;3.95;2.17;;;;;;;22.89;47.78;99633.63;1217377;36;99832;-44
2023/05/12 13:57:30;;;;;;;7.18;2.15;;;;;;;22.82;47.80;99635.66;1151967;36;92493;-43
2023/05/12 13:59:08;;;;;;;5.28;2.63;;;;;;;22.87;47.65;99633.03;1227190;36;68428;-44
2023/05/12 14:00:10;;;;;;;6.63;2.10;;;;;;;23.03;48.10;99641.59;1464839;36;20029;-42
2023/05/12 14:01:20;;;;;;;4.97;1.92;;;;;;;23.06;47.27;99636.50;1439270;36;20659;-43
2023/05/12 14:02:21;;;;;;;5.03;2.10;;;;;;;23.11;47.45;99638.50;1462056;36;20060;-44
2023/05/12 14:03:25;;;;;;;9.13;2.47;;;;;;;23.02;47.37;99638.00;1459696;36;20501;-42
2023/05/12 14:04:26;;;;;;;6.00;2.40;;;;;;;22.94;47.31;99638.38;1459799;36;20011;-42
2023/05/12 14:05:30;;;;;;;3.42;1.77;;;;;;;22.95;47.69;99641.94;1450759;36;20045;-44
2023/05/12 14:06:31;;;;;;;4.05;2.00;;;;;;;22.98;47.32;99636.00;1458004;36;20042;-41
2023/05/12 14:07:34;;;;;;;3.53;2.00;;;;;;;22.91;47.67;99633.38;1451733;36;20900;-40
2023/05/12 14:08:38;;;;;;;4.60;2.05;;;;;;;22.95;47.50;99636.50;1469245;36;20018;-43
2023/05/12 14:09:40;;;;;;;8.35;2.38;;;;;;;23.14;46.94;99629.84;1459176;36;20163;-43
2023/05/12 14:10:44;;;;;;;5.45;2.38;;;;;;;23.01;47.12;99632.81;1449736;36;20402;-44
2023/05/12 14:11:47;;;;;;;4.85;1.80;;;;;;;22.97;47.16;99623.44;1459406;36;20746;-43
2023/05/12 14:12:48;;;;;;;7.53;2.30;;;;;;;22.94;47.45;99630.19;1459278;36;20027;-43
2023/05/12 14:13:52;;;;;;;3.70;2.13;;;;;;;23.01;47.41;99630.09;1449795;36;20144;-44
2023/05/12 14:14:56;;;;;;;4.30;2.30;;;;;;;22.96;47.44;99636.25;1458586;36;20012;-44
2023/05/12 14:15:59;;;;;;;3.88;1.92;;;;;;;22.99;47.35;99634.94;1456924;36;20099;-43
2023/05/12 14:17:00;;;;;;;5.55;2.38;;;;;;;22.96;47.39;99638.13;1459182;36;20050;-43
2023/05/12 14:18:04;;;;;;;30.65;2.67;;;;;;;22.95;47.41;99633.78;1449861;36;20022;-52
2023/05/12 14:19:07;;;;;;;4.30;1.92;;;;;;;22.94;47.54;99634.84;1458534;36;20015;-44
2023/05/12 14:20:10;;;;;;;4.45;2.40;;;;;;;22.92;47.43;99637.78;1455477;36;20023;-43
2023/05/12 14:21:13;;;;;;;3.92;2.00;;;;;;;22.90;47.53;99639.94;1265810;36;20038;-53
2023/05/12 14:22:15;;;;;;;5.25;2.25;;;;;;;22.97;47.60;99629.72;1082692;54;20035;-45
2023/05/12 14:23:19;;;;;;;4.45;2.20;;;;;;;22.97;47.51;99637.91;1082670;54;20034;-44
2023/05/12 14:24:20;;;;;;;3.40;2.10;;;;;;;22.96;47.48;99640.84;1082912;54;20037;-47
2023/05/12 14:25:24;;;;;;;3.97;1.92;;;;;;;22.98;47.42;99639.56;1083131;46;20034;-44
2023/05/12 14:26:25;;;;;;;5.97;2.28;;;;;;;22.92;47.36;99642.41;1082956;54;20137;-45
2023/05/12 14:27:28;;;;;;;3.92;2.17;;;;;;;22.91;47.46;99638.84;1082749;54;20041;-45
2023/05/12 14:28:32;;;;;;;4.25;2.00;;;;;;;22.94;47.83;99634.84;1082855;54;20034;-43
2023/05/12 14:29:33;;;;;;;4.47;2.10;;;;;;;22.92;47.71;99635.03;1082826;54;20064;-44
2023/05/12 14:30:39;;;;;;;5.82;2.75;;;;;;;22.90;47.36;99635.28;1083115;38;20377;-46
2023/05/12 14:31:40;;;;;;;6.22;2.10;;;;;;;22.90;47.57;99635.28;1082798;54;20050;-46
2023/05/12 14:32:44;;;;;;;3.33;2.00;;;;;;;22.92;47.35;99636.97;1082841;54;20034;-45
2023/05/12 14:33:45;;;;;;;4.10;1.90;;;;;;;22.93;47.48;99633.16;1082814;54;20034;-43
2023/05/12 14:34:49;;;;;;;3.85;1.98;;;;;;;22.95;47.26;99640.03;1082590;54;20062;-47
2023/05/12 14:35:50;;;;;;;5.35;1.98;;;;;;;22.94;47.46;99634.84;1082507;54;20576;-47
2023/05/12 14:36:53;;;;;;;3.95;2.10;;;;;;;22.93;47.75;99638.63;1082537;54;20157;-48
2023/05/12 14:37:55;;;;;;;3.90;2.20;;;;;;;23.11;47.45;99635.78;1082265;54;20034;-47
2023/05/12 14:38:59;;;;;;;5.50;2.08;;;;;;;23.03;47.17;99633.41;1082613;54;20034;-46
2023/05/12 14:40:00;;;;;;;7.57;2.25;;;;;;;23.22;47.06;99636.84;1082580;54;20030;-46
